Time;durP1;ratioP1;P1;durP2;ratioP2;P2;SDS_P1;SDS_P2;PMS_P1;PMS_P2;Temp;Humidity;BMP_temperature;BMP_pressure;BME280_temperature;BME280_humidity;BME280_pressure;Samples;Min_cycle;Max_cycle;Signal;HPM_P1;HPM_P2
2021/04/27 00:00:27;;;;;;;4.70;2.72;;;9.40;83.60;;;;;;4170406;28;20034;-68
2021/04/27 00:02:28;;;;;;;4.82;2.50;;;9.40;83.70;;;;;;4144735;28;20104;-68
2021/04/27 00:04:29;;;;;;;5.00;2.70;;;9.40;84.40;;;;;;4145632;28;20031;-68
2021/04/27 00:06:29;;;;;;;3.95;2.97;;;9.40;84.90;;;;;;4144333;28;20103;-68
2021/04/27 00:08:30;;;;;;;5.10;2.70;;;9.40;86.10;;;;;;4175056;28;20045;-68
2021/04/27 00:10:31;;;;;;;4.10;2.90;;;9.30;87.00;;;;;;4149539;28;20037;-69
2021/04/27 00:12:32;;;;;;;7.72;2.97;;;9.30;90.50;;;;;;4152717;28;20069;-68
2021/04/27 00:14:33;;;;;;;5.22;2.97;;;9.30;89.70;;;;;;4144648;28;20516;-69
2021/04/27 00:16:34;;;;;;;4.30;2.40;;;9.20;89.30;;;;;;4141020;28;20566;-69
2021/04/27 00:18:35;;;;;;;3.83;2.67;;;9.20;89.70;;;;;;4141334;28;20048;-69
2021/04/27 00:20:36;;;;;;;4.00;2.45;;;9.20;90.80;;;;;;4139041;28;20030;-69
2021/04/27 00:22:37;;;;;;;6.28;3.00;;;9.20;90.20;;;;;;4136425;28;20125;-69
2021/04/27 00:24:38;;;;;;;5.73;2.93;;;9.10;91.10;;;;;;4141114;28;20426;-69
2021/04/27 00:26:39;;;;;;;4.47;2.88;;;9.10;92.90;;;;;;4134126;28;20061;-69
2021/04/27 00:28:40;;;;;;;3.80;2.65;;;9.10;92.00;;;;;;4141795;28;20053;-68
2021/04/27 00:30:40;;;;;;;4.75;2.75;;;9.10;91.80;;;;;;4140814;28;20034;-68
2021/04/27 00:32:41;;;;;;;4.65;2.65;;;9.10;92.10;;;;;;4133848;28;20404;-69
2021/04/27 00:34:43;;;;;;;4.75;2.65;;;9.10;92.40;;;;;;4136449;28;20038;-69
2021/04/27 00:36:44;;;;;;;3.83;2.70;;;9.00;91.90;;;;;;4128691;28;20046;-69
2021/04/27 00:38:44;;;;;;;6.28;3.42;;;8.90;92.20;;;;;;4134707;28;20292;-68
2021/04/27 00:40:45;;;;;;;7.75;3.10;;;8.80;92.80;;;;;;4136938;28;20045;-69
2021/04/27 00:42:47;;;;;;;5.07;3.00;;;8.80;93.70;;;;;;4140941;28;20034;-69
2021/04/27 00:44:48;;;;;;;5.10;2.50;;;8.70;94.40;;;;;;4141727;28;20042;-69
2021/04/27 00:46:49;;;;;;;5.35;2.80;;;8.70;94.70;;;;;;4140305;28;20108;-69
2021/04/27 00:48:49;;;;;;;5.03;2.83;;;8.70;94.60;;;;;;4141531;28;20053;-69
2021/04/27 00:50:50;;;;;;;4.40;2.55;;;8.70;95.30;;;;;;4140949;28;20026;-69
2021/04/27 00:52:52;;;;;;;4.50;2.42;;;8.70;95.50;;;;;;4140792;28;20077;-69
2021/04/27 00:54:53;;;;;;;5.07;2.60;;;8.70;95.40;;;;;;4141150;28;20038;-69
2021/04/27 00:56:53;;;;;;;4.47;2.67;;;8.70;95.80;;;;;;4150597;28;20265;-69
2021/04/27 00:58:54;;;;;;;3.58;2.55;;;8.70;95.40;;;;;;4147471;28;20060;-69
2021/04/27 01:00:55;;;;;;;4.30;2.47;;;8.70;96.10;;;;;;4148118;28;20034;-69
2021/04/27 01:02:56;;;;;;;3.90;2.67;;;8.70;95.40;;;;;;4148382;28;20483;-69
2021/04/27 01:04:56;;;;;;;6.50;3.20;;;8.70;95.80;;;;;;4141628;28;20671;-69
2021/04/27 01:06:57;;;;;;;6.25;3.10;;;8.70;96.20;;;;;;4141395;28;20034;-69
2021/04/27 01:09:09;;;;;;;4.72;2.60;;;8.70;96.90;;;;;;4140511;28;20054;-68
2021/04/27 01:11:32;;;;;;;5.05;2.50;;;8.70;96.70;;;;;;4141602;28;20030;-69
2021/04/27 01:13:44;;;;;;;;;;;8.60;96.60;;;;;;4140571;28;20030;-69
2021/04/27 01:15:46;;;;;;;5.10;2.55;;;8.60;96.90;;;;;;4140465;28;19940;-69
2021/04/27 01:17:48;;;;;;;5.38;2.75;;;8.70;96.90;;;;;;4138610;28;20549;-69
2021/04/27 01:20:26;;;;;;;5.65;2.75;;;8.60;97.00;;;;;;4138330;28;20555;-69
2021/04/27 01:22:48;;;;;;;3.67;2.88;;;8.60;97.40;;;;;;4137369;28;20033;-69
2021/04/27 01:24:54;;;;;;;4.82;3.03;;;8.60;97.50;;;;;;4137506;28;20140;-69
2021/04/27 01:26:58;;;;;;;4.47;2.90;;;8.60;97.60;;;;;;4160449;28;20038;-69
2021/04/27 01:28:59;;;;;;;6.13;3.15;;;8.50;97.70;;;;;;4139863;28;20034;-69
2021/04/27 01:31:02;;;;;;;4.88;3.05;;;8.50;97.90;;;;;;4145900;28;20033;-69
2021/04/27 01:33:06;;;;;;;5.28;2.75;;;8.40;98.30;;;;;;4148586;28;20030;-68
2021/04/27 01:35:08;;;;;;;5.88;3.17;;;8.30;98.60;;;;;;4140356;28;20042;-69
2021/04/27 01:37:10;;;;;;;3.90;2.90;;;8.30;98.70;;;;;;4141250;28;20131;-69
2021/04/27 01:39:12;;;;;;;5.28;3.35;;;8.20;99.20;;;;;;4140797;28;20531;-69
2021/04/27 01:41:13;;;;;;;6.63;3.50;;;8.10;99.70;;;;;;4134742;28;20042;-69
2021/04/27 01:43:14;;;;;;;4.22;2.70;;;8.10;99.90;;;;;;4117798;28;20049;-69
2021/04/27 01:45:15;;;;;;;4.70;3.10;;;8.10;99.90;;;;;;4122520;28;20047;-69
2021/04/27 01:47:16;;;;;;;6.82;3.42;;;8.00;99.90;;;;;;4119574;28;20038;-69
2021/04/27 01:49:17;;;;;;;5.43;3.17;;;8.00;99.90;;;;;;4139207;28;20038;-69
2021/04/27 01:51:18;;;;;;;6.82;2.85;;;8.00;99.90;;;;;;4140129;28;20033;-68
2021/04/27 01:53:19;;;;;;;5.38;3.22;;;7.90;99.90;;;;;;4170631;28;20516;-69
2021/04/27 01:55:21;;;;;;;6.25;3.20;;;7.90;99.90;;;;;;4137974;28;20092;-69
2021/04/27 01:57:22;;;;;;;5.75;3.25;;;7.90;99.90;;;;;;4139291;28;20042;-69
2021/04/27 01:59:23;;;;;;;4.10;2.58;;;7.90;99.90;;;;;;4130129;28;20058;-69
2021/04/27 02:01:24;;;;;;;6.05;3.22;;;7.90;99.90;;;;;;4122699;28;20043;-69
2021/04/27 02:03:27;;;;;;;6.60;2.90;;;7.80;99.90;;;;;;4131833;28;20054;-69
2021/04/27 02:05:28;;;;;;;5.13;3.15;;;7.80;99.90;;;;;;4141819;28;20535;-69
2021/04/27 02:07:33;;;;;;;6.28;3.42;;;7.80;99.90;;;;;;4142456;28;20096;-68
2021/04/27 02:09:34;;;;;;;3.25;2.70;;;7.80;99.90;;;;;;4142545;28;20104;-69
2021/04/27 02:11:38;;;;;;;3.85;2.75;;;7.80;99.90;;;;;;4143686;28;20125;-69
2021/04/27 02:13:39;;;;;;;4.63;3.03;;;7.80;99.90;;;;;;4129731;28;20038;-69
2021/04/27 02:15:41;;;;;;;5.03;3.10;;;7.90;99.90;;;;;;4130599;28;20049;-69
2021/04/27 02:17:51;;;;;;;5.35;3.30;;;7.90;99.90;;;;;;4141198;28;20057;-69
2021/04/27 02:19:53;;;;;;;3.88;2.80;;;7.90;99.90;;;;;;4128706;28;20039;-69
2021/04/27 02:21:59;;;;;;;3.53;2.67;;;8.00;99.90;;;;;;4117908;28;20066;-69
2021/04/27 02:24:00;;;;;;;3.78;2.67;;;8.00;99.90;;;;;;4126373;28;20053;-69
2021/04/27 02:26:01;;;;;;;5.35;3.30;;;8.00;99.90;;;;;;4126595;28;20038;-69
2021/04/27 02:28:03;;;;;;;5.57;3.30;;;8.00;99.90;;;;;;4130973;28;20621;-69
2021/04/27 02:30:06;;;;;;;5.03;2.88;;;8.00;99.90;;;;;;4128409;28;20039;-69
2021/04/27 02:32:07;;;;;;;5.47;3.08;;;8.00;99.90;;;;;;4126478;28;20154;-69
2021/04/27 02:34:11;;;;;;;5.32;2.97;;;8.00;99.90;;;;;;4121322;28;20031;-69
2021/04/27 02:36:12;;;;;;;4.00;2.80;;;8.00;99.90;;;;;;4126304;28;20031;-69
2021/04/27 02:38:12;;;;;;;4.75;3.30;;;8.00;99.90;;;;;;4136243;28;20166;-69
2021/04/27 02:40:19;;;;;;;3.90;2.78;;;8.00;99.90;;;;;;4126961;28;20030;-69
2021/04/27 02:42:19;;;;;;;5.05;3.15;;;8.00;99.90;;;;;;4123813;28;20031;-69
2021/04/27 02:44:22;;;;;;;4.30;3.08;;;8.00;99.90;;;;;;4124383;28;20030;-68
2021/04/27 02:46:22;;;;;;;5.85;3.03;;;8.00;99.90;;;;;;4125017;28;20122;-69
2021/04/27 02:48:26;;;;;;;5.72;3.50;;;8.00;99.90;;;;;;4123924;28;20057;-69
2021/04/27 02:50:26;;;;;;;4.40;2.65;;;8.00;99.90;;;;;;4126482;28;20610;-69
2021/04/27 02:52:27;;;;;;;4.45;3.00;;;8.00;99.90;;;;;;4151268;28;20041;-69
2021/04/27 02:54:27;;;;;;;4.53;3.00;;;8.00;99.90;;;;;;4181401;28;20053;-69
2021/04/27 02:56:28;;;;;;;4.63;3.25;;;8.00;99.90;;;;;;4151800;28;20029;-69
2021/04/27 02:58:29;;;;;;;10.63;2.90;;;8.00;99.90;;;;;;4152782;28;20041;-69
2021/04/27 03:00:30;;;;;;;6.45;3.58;;;8.10;99.90;;;;;;4143749;28;20041;-69
2021/04/27 03:02:30;;;;;;;5.70;3.50;;;8.10;99.90;;;;;;4149510;28;20062;-69
2021/04/27 03:04:31;;;;;;;4.10;2.90;;;8.10;99.90;;;;;;4151576;28;20061;-69
2021/04/27 03:06:32;;;;;;;4.32;2.97;;;8.10;99.90;;;;;;4144216;28;20060;-69
2021/04/27 03:08:34;;;;;;;5.63;3.60;;;8.00;99.70;;;;;;4148828;28;20750;-69
2021/04/27 03:10:35;;;;;;;5.30;3.50;;;8.00;99.60;;;;;;4151608;28;20053;-69
2021/04/27 03:12:35;;;;;;;5.20;3.30;;;8.00;99.80;;;;;;4118287;28;20038;-69
2021/04/27 03:14:36;;;;;;;5.07;3.50;;;8.00;99.90;;;;;;4128459;28;20125;-69
2021/04/27 03:16:37;;;;;;;4.72;3.08;;;8.00;99.80;;;;;;4135298;28;20057;-69
2021/04/27 03:18:38;;;;;;;4.05;3.22;;;8.00;99.70;;;;;;4128793;28;20038;-69
2021/04/27 03:20:42;;;;;;;8.40;4.05;;;7.90;99.60;;;;;;4141732;28;20045;-69
2021/04/27 03:22:43;;;;;;;6.70;3.38;;;8.00;99.60;;;;;;4146428;28;20560;-69
2021/04/27 03:24:43;;;;;;;6.20;3.35;;;8.00;99.70;;;;;;4153341;28;20045;-68
2021/04/27 03:26:44;;;;;;;7.25;3.47;;;7.90;99.80;;;;;;4150869;28;20458;-69
2021/04/27 03:28:45;;;;;;;6.20;3.67;;;7.90;99.90;;;;;;4151906;28;20041;-69
2021/04/27 03:30:46;;;;;;;5.68;3.45;;;7.90;99.80;;;;;;4146703;28;20034;-69
2021/04/27 03:32:47;;;;;;;6.85;3.40;;;7.90;99.90;;;;;;4142964;28;20045;-69
2021/04/27 03:34:47;;;;;;;6.28;3.67;;;7.80;99.90;;;;;;4127763;28;20491;-69
2021/04/27 03:36:48;;;;;;;6.00;3.42;;;7.80;99.80;;;;;;4136939;28;20429;-69
2021/04/27 03:38:48;;;;;;;4.53;3.45;;;7.80;99.60;;;;;;4141594;28;20744;-69
2021/04/27 03:40:49;;;;;;;7.18;3.75;;;7.80;99.50;;;;;;4141099;28;20041;-69
2021/04/27 03:42:50;;;;;;;4.70;3.28;;;7.80;99.40;;;;;;4140089;28;20038;-69
2021/04/27 03:44:51;;;;;;;6.85;3.83;;;7.80;99.00;;;;;;4141336;28;20041;-69
2021/04/27 03:46:52;;;;;;;6.28;3.58;;;7.80;99.10;;;;;;4137841;28;20042;-69
2021/04/27 03:48:52;;;;;;;4.55;3.30;;;7.80;99.40;;;;;;4134628;28;20057;-69
2021/04/27 03:50:54;;;;;;;6.10;3.63;;;7.70;99.30;;;;;;4136543;28;20038;-69
2021/04/27 03:52:55;;;;;;;5.20;3.87;;;7.70;99.70;;;;;;4141543;28;20590;-69
2021/04/27 03:54:56;;;;;;;5.18;3.28;;;7.70;99.50;;;;;;4141451;28;20265;-69
2021/04/27 03:56:56;;;;;;;5.03;3.13;;;7.70;99.60;;;;;;4141820;28;20069;-69
2021/04/27 03:58:57;;;;;;;4.97;3.47;;;7.70;99.40;;;;;;4140969;28;20383;-69
2021/04/27 04:00:58;;;;;;;6.25;3.40;;;7.60;99.90;;;;;;4141799;28;20041;-69
2021/04/27 04:02:59;;;;;;;4.35;3.40;;;7.60;99.90;;;;;;4134431;28;20564;-69
2021/04/27 04:05:00;;;;;;;4.03;3.17;;;7.60;99.90;;;;;;4129554;28;20026;-69
2021/04/27 04:07:01;;;;;;;5.63;3.53;;;7.60;99.90;;;;;;4142128;28;20033;-69
2021/04/27 04:09:08;;;;;;;4.32;3.33;;;7.50;99.90;;;;;;4141579;28;20532;-69
2021/04/27 04:11:09;;;;;;;4.88;3.20;;;7.60;99.90;;;;;;4135766;28;20037;-69
2021/04/27 04:13:10;;;;;;;5.38;3.72;;;7.50;99.90;;;;;;4162507;28;20558;-69
2021/04/27 04:15:14;;;;;;;5.90;3.90;;;7.50;99.90;;;;;;4139721;28;20356;-69
2021/04/27 04:17:14;;;;;;;6.55;3.83;;;7.50;99.90;;;;;;4141184;28;20031;-69
2021/04/27 04:19:16;;;;;;;6.63;3.70;;;7.50;99.90;;;;;;4142609;28;20034;-69
2021/04/27 04:21:16;;;;;;;6.53;3.75;;;7.40;99.90;;;;;;4142256;28;20343;-69
2021/04/27 04:23:17;;;;;;;5.95;3.95;;;7.40;99.90;;;;;;4142694;28;20088;-69
2021/04/27 04:25:18;;;;;;;4.63;3.47;;;7.40;99.90;;;;;;4142399;28;20058;-69
2021/04/27 04:27:19;;;;;;;7.93;3.85;;;7.30;99.90;;;;;;4135774;28;20038;-69
2021/04/27 04:29:20;;;;;;;9.05;4.22;;;7.40;99.90;;;;;;4138233;28;20038;-69
2021/04/27 04:31:21;;;;;;;9.50;4.40;;;7.30;99.90;;;;;;4138774;28;20034;-69
2021/04/27 04:33:22;;;;;;;5.80;3.78;;;7.40;99.90;;;;;;4140582;28;20045;-69
2021/04/27 04:35:24;;;;;;;6.88;4.00;;;7.40;99.90;;;;;;4139038;28;20042;-69
2021/04/27 04:37:26;;;;;;;6.32;4.18;;;7.30;99.90;;;;;;4139436;28;20045;-69
2021/04/27 04:39:26;;;;;;;6.15;3.90;;;7.30;99.90;;;;;;4137058;28;20041;-69
2021/04/27 04:41:27;;;;;;;4.57;3.35;;;7.30;99.90;;;;;;4171481;28;20036;-69
2021/04/27 04:43:27;;;;;;;6.57;3.72;;;7.30;99.90;;;;;;4140025;28;20053;-69
2021/04/27 04:45:28;;;;;;;6.00;3.72;;;7.30;99.90;;;;;;4134919;28;20045;-69
2021/04/27 04:47:29;;;;;;;6.55;3.75;;;7.30;99.90;;;;;;4141106;28;20034;-69
2021/04/27 04:49:30;;;;;;;5.32;3.88;;;7.30;99.90;;;;;;4140295;28;20034;-68
2021/04/27 04:51:30;;;;;;;5.47;3.72;;;7.30;99.90;;;;;;4137162;28;20046;-69
2021/04/27 04:53:31;;;;;;;8.45;4.35;;;7.30;99.90;;;;;;4140501;28;20034;-69
2021/04/27 04:55:33;;;;;;;7.70;3.97;;;7.40;99.90;;;;;;4141116;28;20163;-69
2021/04/27 04:57:35;;;;;;;7.57;3.92;;;7.40;99.90;;;;;;4140342;28;20726;-69
2021/04/27 04:59:36;;;;;;;8.30;4.28;;;7.40;99.90;;;;;;4139570;28;20030;-69
2021/04/27 05:01:37;;;;;;;7.05;4.10;;;7.40;99.90;;;;;;4132923;28;20496;-69
2021/04/27 05:03:39;;;;;;;6.45;3.83;;;7.40;99.90;;;;;;4135696;28;20470;-69
2021/04/27 05:05:39;;;;;;;7.93;4.20;;;7.40;99.90;;;;;;4127713;28;20062;-69
2021/04/27 05:07:43;;;;;;;5.65;3.85;;;7.30;99.90;;;;;;4141309;28;20416;-69
2021/04/27 05:09:44;;;;;;;6.32;4.28;;;7.30;99.90;;;;;;4140721;28;20173;-69
2021/04/27 05:11:45;;;;;;;8.35;4.07;;;7.30;99.90;;;;;;4139187;28;20596;-68
2021/04/27 05:13:46;;;;;;;5.18;3.53;;;7.40;99.90;;;;;;4140941;28;20157;-69
2021/04/27 05:15:46;;;;;;;8.30;4.38;;;7.40;99.90;;;;;;4139839;28;20510;-69
2021/04/27 05:17:47;;;;;;;5.80;3.75;;;7.30;99.90;;;;;;4138799;28;20065;-69
2021/04/27 05:19:48;;;;;;;7.25;3.90;;;7.30;99.90;;;;;;4138637;28;20046;-69
2021/04/27 05:21:48;;;;;;;9.20;4.30;;;7.30;99.90;;;;;;4148768;28;20111;-69
2021/04/27 05:23:49;;;;;;;10.45;4.57;;;7.20;99.90;;;;;;4133207;28;20113;-69
2021/04/27 05:25:50;;;;;;;10.27;4.68;;;7.20;99.90;;;;;;4142034;28;20029;-69
2021/04/27 05:27:51;;;;;;;12.82;4.68;;;7.10;99.90;;;;;;4139835;28;20385;-69
2021/04/27 05:29:52;;;;;;;7.13;4.45;;;7.00;99.90;;;;;;4141480;28;20046;-69
2021/04/27 05:31:53;;;;;;;7.13;4.10;;;7.00;99.90;;;;;;4142365;28;20038;-69
2021/04/27 05:33:53;;;;;;;7.50;4.28;;;7.10;99.90;;;;;;4143913;28;20506;-69
2021/04/27 05:35:55;;;;;;;9.35;4.85;;;7.00;99.90;;;;;;4124876;28;20037;-69
2021/04/27 05:37:55;;;;;;;6.72;4.20;;;7.00;99.90;;;;;;4142319;28;20030;-69
2021/04/27 05:39:56;;;;;;;7.07;4.55;;;7.10;99.90;;;;;;4144522;28;20104;-69
2021/04/27 05:41:57;;;;;;;6.65;3.72;;;7.10;99.90;;;;;;4142542;28;20041;-69
2021/04/27 05:43:58;;;;;;;11.07;4.78;;;7.10;99.90;;;;;;4157880;28;20172;-69
2021/04/27 05:45:59;;;;;;;7.68;4.47;;;7.20;99.90;;;;;;4143327;28;20502;-69
2021/04/27 05:48:00;;;;;;;6.32;4.20;;;7.20;99.90;;;;;;4144113;28;20042;-70
2021/04/27 05:50:01;;;;;;;9.65;5.05;;;7.20;99.90;;;;;;4143472;28;20038;-69
2021/04/27 05:52:02;;;;;;;11.82;4.88;;;7.20;99.90;;;;;;4139666;28;20033;-69
2021/04/27 05:54:04;;;;;;;8.98;5.35;;;7.30;99.90;;;;;;4144888;28;20022;-69
2021/04/27 05:56:04;;;;;;;7.40;4.50;;;7.30;99.90;;;;;;4141741;28;20046;-69
2021/04/27 05:58:05;;;;;;;11.20;5.60;;;7.30;99.90;;;;;;4126704;28;20048;-69
2021/04/27 06:00:07;;;;;;;7.20;4.75;;;7.30;99.90;;;;;;4144477;28;20117;-70
2021/04/27 06:02:07;;;;;;;9.00;5.50;;;7.40;99.90;;;;;;4144594;28;20068;-70
2021/04/27 06:04:08;;;;;;;12.98;5.20;;;7.40;99.90;;;;;;4159570;28;20041;-70
2021/04/27 06:06:09;;;;;;;10.00;5.25;;;7.50;99.90;;;;;;4138395;28;20038;-71
2021/04/27 06:08:09;;;;;;;8.52;4.90;;;7.50;99.90;;;;;;4137344;28;20034;-71
2021/04/27 06:10:10;;;;;;;10.82;5.22;;;7.50;99.90;;;;;;4144353;28;20053;-70
2021/04/27 06:12:11;;;;;;;13.50;5.38;;;7.60;99.90;;;;;;4144657;28;20503;-70
2021/04/27 06:14:12;;;;;;;10.30;4.82;;;7.60;99.90;;;;;;4145693;28;20041;-70
2021/04/27 06:16:12;;;;;;;8.52;4.50;;;7.70;99.90;;;;;;4142435;28;20088;-70
2021/04/27 06:18:13;;;;;;;9.07;4.63;;;7.80;99.90;;;;;;4157270;28;20171;-71
2021/04/27 06:20:15;;;;;;;11.43;5.07;;;7.90;99.90;;;;;;4142872;28;20787;-70
2021/04/27 06:22:16;;;;;;;10.20;4.85;;;7.90;99.90;;;;;;4158642;28;20603;-71
2021/04/27 06:24:16;;;;;;;9.15;4.68;;;8.00;99.90;;;;;;4164000;28;20045;-70
2021/04/27 06:26:18;;;;;;;8.93;5.03;;;8.10;99.90;;;;;;4139585;28;20038;-70
2021/04/27 06:28:19;;;;;;;10.63;4.85;;;8.20;99.90;;;;;;4158518;28;20032;-71
2021/04/27 06:30:22;;;;;;;9.60;4.85;;;8.20;99.90;;;;;;4143907;28;20034;-70
2021/04/27 06:32:23;;;;;;;9.75;4.95;;;8.30;99.90;;;;;;4144237;28;20034;-71
2021/04/27 06:34:23;;;;;;;9.73;4.25;;;8.40;99.90;;;;;;4143571;28;20429;-70
2021/04/27 06:36:25;;;;;;;9.05;4.63;;;8.50;99.90;;;;;;4143895;28;20033;-70
2021/04/27 06:38:26;;;;;;;11.35;4.70;;;8.60;99.90;;;;;;4158567;28;20087;-70
2021/04/27 06:40:27;;;;;;;11.45;4.82;;;8.70;99.90;;;;;;4143531;28;20486;-70
2021/04/27 06:42:27;;;;;;;7.95;4.40;;;8.80;99.90;;;;;;4143723;28;20033;-70
2021/04/27 06:44:28;;;;;;;8.63;4.10;;;8.90;99.90;;;;;;4167213;28;20103;-70
2021/04/27 06:46:31;;;;;;;7.57;3.85;;;9.00;99.20;;;;;;4141136;28;20026;-70
2021/04/27 06:48:35;;;;;;;10.43;4.43;;;9.20;98.30;;;;;;4140773;28;20387;-70
2021/04/27 06:50:37;;;;;;;8.23;4.28;;;9.30;94.30;;;;;;4140489;28;20117;-70
2021/04/27 06:52:38;;;;;;;8.98;4.68;;;9.30;91.80;;;;;;4167636;28;20045;-70
2021/04/27 06:54:39;;;;;;;9.88;4.10;;;9.40;91.80;;;;;;4143046;28;20391;-70
2021/04/27 06:56:40;;;;;;;7.50;4.10;;;9.50;91.50;;;;;;4160930;28;20036;-70
2021/04/27 06:58:41;;;;;;;10.25;4.78;;;9.60;92.70;;;;;;4165003;28;20413;-70
2021/04/27 07:00:42;;;;;;;12.50;4.22;;;9.60;93.40;;;;;;4142940;28;20065;-70
2021/04/27 07:02:42;;;;;;;6.90;4.07;;;9.70;90.00;;;;;;4141286;28;20394;-70
2021/04/27 07:04:43;;;;;;;6.78;3.53;;;9.70;86.80;;;;;;4134818;28;20038;-70
2021/04/27 07:06:43;;;;;;;10.00;4.45;;;9.80;88.50;;;;;;4142971;28;20037;-70
2021/04/27 07:08:44;;;;;;;7.30;4.15;;;9.90;81.70;;;;;;4139937;28;20037;-70
2021/04/27 07:10:45;;;;;;;7.30;3.85;;;9.90;83.40;;;;;;4142359;28;20058;-70
2021/04/27 07:12:46;;;;;;;11.93;4.47;;;10.00;82.50;;;;;;4142427;28;20038;-70
2021/04/27 07:14:46;;;;;;;10.15;3.55;;;10.00;81.20;;;;;;4141243;28;20046;-70
2021/04/27 07:16:47;;;;;;;7.70;3.92;;;10.00;79.40;;;;;;4141528;28;20037;-70
2021/04/27 07:18:48;;;;;;;8.63;4.40;;;10.10;81.50;;;;;;4141173;28;20498;-70
2021/04/27 07:20:48;;;;;;;7.00;4.07;;;10.20;89.00;;;;;;4140380;28;20042;-70
2021/04/27 07:22:49;;;;;;;8.90;4.13;;;10.20;85.50;;;;;;4142085;28;20050;-70
2021/04/27 07:24:49;;;;;;;8.85;4.10;;;10.20;80.50;;;;;;4164700;28;20033;-70
2021/04/27 07:26:50;;;;;;;8.68;3.90;;;10.20;76.70;;;;;;4140439;28;20033;-70
2021/04/27 07:28:51;;;;;;;10.07;3.92;;;10.30;77.00;;;;;;4140793;28;20077;-70
2021/04/27 07:30:52;;;;;;;8.32;4.05;;;10.30;81.30;;;;;;4153816;28;20057;-71
2021/04/27 07:32:53;;;;;;;8.00;4.10;;;10.40;79.80;;;;;;4140900;28;20053;-71
2021/04/27 07:34:54;;;;;;;9.70;4.68;;;10.40;80.90;;;;;;4141733;28;20026;-71
2021/04/27 07:36:54;;;;;;;8.77;4.82;;;10.50;76.70;;;;;;4141397;28;20038;-71
2021/04/27 07:38:55;;;;;;;10.13;5.00;;;10.50;74.70;;;;;;4141695;28;20379;-71
2021/04/27 07:40:56;;;;;;;9.82;4.53;;;10.50;72.60;;;;;;4147793;28;20034;-71
2021/04/27 07:42:57;;;;;;;8.60;4.40;;;10.60;74.50;;;;;;4142217;28;20038;-71
2021/04/27 07:44:58;;;;;;;8.35;4.05;;;10.60;74.20;;;;;;4138450;28;20119;-71
2021/04/27 07:46:59;;;;;;;5.80;3.58;;;10.70;76.30;;;;;;4140744;28;21041;-70
2021/04/27 07:48:59;;;;;;;8.98;3.92;;;10.70;72.20;;;;;;4154195;28;20037;-71
2021/04/27 07:51:00;;;;;;;6.53;3.58;;;10.80;73.50;;;;;;4140934;28;20037;-71
2021/04/27 07:53:02;;;;;;;7.47;4.05;;;10.80;75.50;;;;;;4157094;28;20034;-71
2021/04/27 07:55:03;;;;;;;7.70;3.75;;;10.90;72.30;;;;;;4140951;28;20114;-71
2021/04/27 07:57:04;;;;;;;6.57;3.38;;;11.00;69.30;;;;;;4169256;28;20099;-71
2021/04/27 07:59:06;;;;;;;6.72;3.53;;;11.00;72.20;;;;;;4139110;28;20034;-71
2021/04/27 08:01:06;;;;;;;5.78;3.58;;;11.10;68.00;;;;;;4139813;28;20037;-71
2021/04/27 08:03:07;;;;;;;7.97;3.95;;;11.20;68.10;;;;;;4140962;28;20552;-71
2021/04/27 08:05:09;;;;;;;9.52;3.75;;;11.20;67.10;;;;;;4140829;28;20026;-70
2021/04/27 08:07:09;;;;;;;7.13;3.63;;;11.30;65.40;;;;;;4139672;28;20066;-71
2021/04/27 08:09:10;;;;;;;6.18;3.45;;;11.40;64.40;;;;;;4166413;28;20116;-70
2021/04/27 08:11:11;;;;;;;5.47;3.22;;;11.40;65.50;;;;;;4140639;28;20088;-71
2021/04/27 08:13:11;;;;;;;7.30;3.78;;;11.40;63.50;;;;;;4140433;28;20033;-71
2021/04/27 08:15:14;;;;;;;7.28;3.55;;;11.50;63.40;;;;;;4141716;28;20038;-71
2021/04/27 08:17:15;;;;;;;5.88;3.40;;;11.50;66.70;;;;;;4139535;28;20536;-71
2021/04/27 08:19:15;;;;;;;5.80;3.47;;;11.60;67.10;;;;;;4140582;28;20149;-71
2021/04/27 08:21:16;;;;;;;5.70;3.13;;;11.80;64.00;;;;;;4141567;28;20114;-71
2021/04/27 08:23:17;;;;;;;5.28;3.28;;;11.90;66.60;;;;;;4141637;28;20438;-70
2021/04/27 08:25:18;;;;;;;6.25;3.58;;;12.00;63.40;;;;;;4140336;28;20045;-71
2021/04/27 08:27:19;;;;;;;5.03;3.08;;;12.10;60.30;;;;;;4141203;28;20026;-70
2021/04/27 08:29:20;;;;;;;5.65;2.83;;;12.20;63.10;;;;;;4139685;28;20041;-71
2021/04/27 08:31:20;;;;;;;5.78;3.20;;;12.30;62.40;;;;;;4155732;28;20033;-70
2021/04/27 08:33:21;;;;;;;4.80;3.03;;;12.30;60.90;;;;;;4141540;28;20050;-70
2021/04/27 08:35:22;;;;;;;6.93;3.17;;;12.40;60.60;;;;;;4166122;28;20124;-71
2021/04/27 08:37:22;;;;;;;4.63;3.05;;;12.50;60.00;;;;;;4138873;28;20030;-71
2021/04/27 08:39:23;;;;;;;4.32;2.65;;;12.70;58.50;;;;;;4141924;28;20052;-70
2021/04/27 08:41:25;;;;;;;4.43;2.63;;;12.80;59.90;;;;;;4141553;28;20479;-70
2021/04/27 08:43:26;;;;;;;9.98;3.20;;;12.90;57.30;;;;;;4154643;28;20141;-70
2021/04/27 08:45:26;;;;;;;6.43;2.88;;;12.90;58.80;;;;;;4135963;28;20423;-70
2021/04/27 08:47:28;;;;;;;6.25;3.47;;;13.00;57.40;;;;;;4137834;28;20041;-71
2021/04/27 08:49:28;;;;;;;4.80;2.95;;;13.00;56.60;;;;;;4152634;28;20221;-70
2021/04/27 08:51:29;;;;;;;9.68;3.58;;;13.10;57.50;;;;;;4140567;28;20062;-70
2021/04/27 08:53:30;;;;;;;4.35;3.03;;;13.20;57.90;;;;;;4156968;28;20224;-70
2021/04/27 08:55:30;;;;;;;6.38;3.65;;;13.40;57.40;;;;;;4139247;28;20046;-71
2021/04/27 08:57:33;;;;;;;4.93;2.80;;;13.40;56.00;;;;;;4164003;28;20029;-71
2021/04/27 08:59:34;;;;;;;3.83;2.75;;;13.50;56.60;;;;;;4139282;28;20522;-69
2021/04/27 09:01:34;;;;;;;4.75;2.83;;;13.60;54.50;;;;;;4153721;28;20033;-69
2021/04/27 09:03:46;;;;;;;4.43;2.88;;;13.70;55.90;;;;;;4139658;28;20064;-69
2021/04/27 09:05:47;;;;;;;5.35;2.75;;;13.80;54.40;;;;;;4137772;28;20505;-69
2021/04/27 09:07:48;;;;;;;4.75;2.63;;;13.90;53.70;;;;;;4140184;28;21077;-69
2021/04/27 09:09:54;;;;;;;6.05;3.33;;;14.00;54.60;;;;;;4134815;28;20521;-69
2021/04/27 09:11:55;;;;;;;7.68;3.13;;;14.10;52.80;;;;;;4143469;28;20048;-69
2021/04/27 09:14:15;;;;;;;6.50;2.65;;;14.10;53.40;;;;;;4139158;28;20042;-69
2021/04/27 09:16:25;;;;;;;4.43;2.78;;;14.10;53.80;;;;;;4141183;28;20038;-69
2021/04/27 09:18:34;;;;;;;5.75;3.13;;;14.20;55.20;;;;;;4166144;28;20374;-69
2021/04/27 09:20:49;;;;;;;4.72;2.78;;;14.30;51.10;;;;;;4155580;28;20037;-69
2021/04/27 09:22:49;;;;;;;5.28;2.88;;;14.40;54.20;;;;;;4141292;28;20148;-69
2021/04/27 09:24:54;;;;;;;3.72;2.38;;;14.50;52.00;;;;;;4143769;28;20033;-69
2021/04/27 09:26:55;;;;;;;5.00;2.60;;;14.60;53.00;;;;;;4142243;28;20792;-69
2021/04/27 09:28:57;;;;;;;3.88;2.70;;;14.70;50.90;;;;;;4143896;28;20108;-69
2021/04/27 09:30:57;;;;;;;5.07;3.00;;;14.60;49.90;;;;;;4143929;28;20038;-69
2021/04/27 09:33:00;;;;;;;3.97;2.63;;;14.60;49.00;;;;;;4143556;28;20557;-69
2021/04/27 09:35:41;;;;;;;3.50;2.50;;;14.60;50.60;;;;;;4144197;28;20038;-69
2021/04/27 09:38:20;;;;;;;4.07;2.08;;;14.70;51.60;;;;;;4091348;28;20039;-69
2021/04/27 09:40:23;;;;;;;4.25;2.40;;;14.80;50.50;;;;;;4091945;28;20122;-70
2021/04/27 09:42:24;;;;;;;4.32;2.17;;;14.90;49.40;;;;;;4105631;28;20117;-69
2021/04/27 09:44:31;;;;;;;3.90;2.72;;;14.80;49.00;;;;;;4131704;28;20053;-69
2021/04/27 09:46:31;;;;;;;3.33;2.60;;;15.00;49.10;;;;;;4141742;28;20093;-69
2021/04/27 09:48:44;;;;;;;4.72;2.78;;;15.10;49.30;;;;;;4139607;28;20121;-69
2021/04/27 09:50:45;;;;;;;4.43;2.40;;;15.20;47.80;;;;;;4139727;28;20030;-69
2021/04/27 09:52:47;;;;;;;4.80;2.83;;;15.30;46.50;;;;;;4142653;28;20060;-69
2021/04/27 09:55:01;;;;;;;5.82;2.65;;;15.30;48.30;;;;;;4139862;28;20515;-69
2021/04/27 09:57:02;;;;;;;3.88;2.70;;;15.30;45.60;;;;;;4138393;28;20379;-70
2021/04/27 09:59:07;;;;;;;4.57;2.70;;;15.10;45.80;;;;;;4142030;28;20180;-70
2021/04/27 10:01:11;;;;;;;4.40;2.47;;;15.00;46.40;;;;;;4141836;28;20048;-70
2021/04/27 10:03:12;;;;;;;5.07;2.92;;;15.20;47.40;;;;;;4156858;28;20041;-69
2021/04/27 10:05:13;;;;;;;5.97;2.67;;;15.10;45.90;;;;;;4139929;28;20372;-69
2021/04/27 10:07:17;;;;;;;4.78;2.85;;;15.20;46.20;;;;;;4141377;28;20088;-69
2021/04/27 10:09:18;;;;;;;7.38;3.15;;;15.20;45.20;;;;;;4142311;28;20053;-69
2021/04/27 10:11:20;;;;;;;4.47;2.55;;;15.30;48.10;;;;;;4138194;28;20026;-70
2021/04/27 10:13:22;;;;;;;4.55;3.08;;;15.40;47.40;;;;;;4144480;28;20033;-70
2021/04/27 10:15:23;;;;;;;3.22;2.70;;;15.40;45.00;;;;;;4141466;28;20398;-70
2021/04/27 10:17:24;;;;;;;3.83;2.50;;;15.40;45.80;;;;;;4143908;28;20030;-70
2021/04/27 10:19:25;;;;;;;4.47;2.50;;;15.60;47.30;;;;;;4140780;28;20479;-70
2021/04/27 10:21:26;;;;;;;2.20;2.00;;;15.60;48.90;;;;;;4136838;28;20034;-70
2021/04/27 10:23:26;;;;;;;7.30;2.90;;;15.70;47.00;;;;;;4140615;28;20093;-70
2021/04/27 10:25:29;;;;;;;4.93;3.08;;;15.60;44.60;;;;;;4143482;28;20044;-70
2021/04/27 10:27:30;;;;;;;5.68;2.97;;;15.50;46.00;;;;;;4141629;28;20838;-70
2021/04/27 10:29:31;;;;;;;4.03;2.40;;;15.50;45.30;;;;;;4142467;28;20041;-70
2021/04/27 10:31:39;;;;;;;6.82;3.03;;;15.70;45.40;;;;;;4141384;28;20053;-70
2021/04/27 10:34:17;;;;;;;4.68;2.90;;;15.80;47.00;;;;;;4142366;28;20130;-69
2021/04/27 10:36:18;;;;;;;6.43;3.10;;;15.90;46.50;;;;;;4140677;28;20050;-70
2021/04/27 10:38:18;;;;;;;6.75;2.72;;;15.80;44.00;;;;;;4154223;28;20022;-70
2021/04/27 10:40:47;;;;;;;5.35;2.60;;;15.90;47.00;;;;;;4139600;28;20096;-70